Oakwood, Georgia
Current Conditions -  °F | °C
As of 7:53 PM on Monday 26 Jan 2015 (Local Time) from KGVL Reporting Station
Few Clouds Few Clouds  
Wind Chill: 25°   Ceiling: Unl
Heat Index: 34°   Visibility: 10mi
Dew Point: 25°   Wind: 12mph
Humidity: 70%   Direction: 290°WNW
Pressure: 29.88"   Gusts: NA
Location:  34.23°N, 83.88°W
Report Text: KGVL 270053Z AUTO 29010KT 10SM FEW100 01/M04 A2988 RMK AO2 SLP121 T00111039
Loading
Personal Weather Stations






























Interactive Weather Map New forecast layout! Learn more

10-Day Weather Forecast

Advertisements
Track Severe Weather on mobile